createdAt,value
2018-06-03T00:00:13.465Z,42.48
2018-06-03T00:01:13.639Z,39.55
2018-06-03T00:02:13.833Z,47.12
2018-06-03T00:03:14.012Z,44.68
2018-06-03T00:04:14.205Z,50.29
2018-06-03T00:05:14.393Z,43.95
2018-06-03T00:06:14.580Z,48.83
2018-06-03T00:07:14.793Z,44.68
2018-06-03T00:08:14.932Z,43.95
2018-06-03T00:09:15.143Z,45.41
2018-06-03T00:10:15.306Z,47.36
2018-06-03T00:11:15.469Z,48.10
2018-06-03T00:12:15.694Z,59.33
2018-06-03T00:13:15.850Z,48.58
2018-06-03T00:14:16.008Z,52.73
2018-06-03T00:15:16.196Z,47.85
2018-06-03T00:16:16.393Z,47.36
2018-06-03T00:17:16.565Z,44.92
2018-06-03T00:18:16.766Z,48.34
2018-06-03T00:19:16.941Z,47.36
2018-06-03T00:20:17.119Z,51.03
2018-06-03T00:21:17.303Z,50.78
2018-06-03T00:22:17.475Z,50.29
2018-06-03T00:23:17.656Z,45.41
2018-06-03T00:24:17.838Z,46.63
2018-06-03T00:25:18.016Z,41.50
2018-06-03T00:26:18.260Z,43.95
2018-06-03T00:27:18.410Z,43.70
2018-06-03T00:28:18.573Z,47.12
2018-06-03T00:29:18.760Z,44.68
2018-06-03T00:30:18.941Z,44.68
2018-06-03T00:31:19.174Z,44.68
2018-06-03T00:32:19.308Z,47.61
2018-06-03T00:33:19.505Z,45.41
2018-06-03T00:34:19.695Z,45.90
2018-06-03T00:35:19.853Z,46.14
2018-06-03T00:36:20.026Z,45.41
2018-06-03T00:37:20.253Z,44.68
2018-06-03T00:38:20.379Z,45.17
2018-06-03T00:39:20.562Z,39.79
2018-06-03T00:40:20.746Z,43.95
2018-06-03T00:41:20.925Z,41.26
2018-06-03T00:42:21.106Z,38.09
2018-06-03T00:43:21.292Z,45.90
2018-06-03T00:44:21.495Z,41.75
2018-06-03T00:45:21.673Z,38.09
2018-06-03T00:46:21.830Z,40.77
2018-06-03T00:47:22.015Z,42.48
2018-06-03T00:48:22.190Z,41.02
2018-06-03T00:49:22.379Z,36.62
2018-06-03T00:50:22.550Z,39.31
2018-06-03T00:51:22.751Z,38.57
2018-06-03T00:52:22.938Z,38.33
2018-06-03T00:53:23.106Z,38.82
2018-06-03T00:54:23.288Z,39.31
2018-06-03T00:55:23.476Z,53.71
2018-06-03T00:56:23.670Z,39.55
2018-06-03T00:57:23.839Z,46.63
2018-06-03T00:58:24.041Z,43.95
2018-06-03T00:59:24.202Z,39.79
2018-06-03T01:00:24.378Z,42.97
2018-06-03T01:01:24.606Z,36.87
2018-06-03T01:02:24.742Z,39.31
2018-06-03T01:03:24.917Z,38.82
2018-06-03T01:04:25.118Z,46.14
2018-06-03T01:05:25.287Z,44.19
2018-06-03T01:06:25.495Z,42.48
2018-06-03T01:07:25.641Z,35.64
2018-06-03T01:08:25.828Z,38.57
2018-06-03T01:09:26.003Z,41.26
2018-06-03T01:10:26.193Z,37.35
2018-06-03T01:11:26.397Z,35.64
2018-06-03T01:12:26.561Z,35.64
2018-06-03T01:13:26.739Z,36.38
2018-06-03T01:14:26.916Z,36.13
2018-06-03T01:15:27.118Z,38.82
2018-06-03T01:16:27.269Z,38.57
2018-06-03T01:17:27.462Z,37.35
2018-06-03T01:18:27.624Z,40.28
2018-06-03T01:19:27.822Z,43.46
2018-06-03T01:20:28.061Z,42.72
2018-06-03T01:21:28.209Z,42.24
2018-06-03T01:22:28.396Z,39.06
2018-06-03T01:23:28.583Z,38.57
2018-06-03T01:24:28.767Z,38.09
2018-06-03T01:25:28.939Z,37.60
2018-06-03T01:26:29.134Z,36.13
2018-06-03T01:27:29.318Z,38.33
2018-06-03T01:28:29.495Z,49.32
2018-06-03T01:29:29.723Z,45.90
2018-06-03T01:30:29.879Z,46.14
2018-06-03T01:31:30.059Z,43.46
2018-06-03T01:32:30.206Z,42.72
2018-06-03T01:33:30.414Z,44.92
2018-06-03T01:34:30.570Z,60.06
2018-06-03T01:35:30.750Z,52.49
2018-06-03T01:36:30.917Z,51.03
2018-06-03T01:37:37.983Z,51.27
2018-06-03T01:38:31.282Z,51.76
2018-06-03T01:39:31.467Z,61.52
2018-06-03T01:40:31.658Z,56.64
2018-06-03T01:41:31.844Z,54.44
2018-06-03T01:42:32.025Z,41.75
2018-06-03T01:43:32.235Z,45.41
2018-06-03T01:44:32.405Z,50.29
2018-06-03T01:45:32.593Z,43.95
2018-06-03T01:46:32.809Z,46.14
2018-06-03T01:47:32.934Z,43.21
2018-06-03T01:48:33.106Z,46.14
2018-06-03T01:49:33.290Z,42.97
2018-06-03T01:50:33.507Z,46.39
2018-06-03T01:51:33.702Z,45.41
2018-06-03T01:52:33.848Z,50.05
2018-06-03T01:53:34.932Z,49.56
2018-06-03T01:54:34.297Z,52.98
2018-06-03T01:55:34.477Z,49.80
2018-06-03T01:56:34.643Z,47.61
2018-06-03T01:57:34.823Z,45.65
2018-06-03T01:58:35.002Z,46.63
2018-06-03T01:59:35.200Z,44.92
2018-06-03T02:00:35.405Z,42.72
2018-06-03T02:01:35.570Z,43.46
2018-06-03T02:02:35.787Z,42.97
2018-06-03T02:03:35.915Z,54.69
2018-06-03T02:04:36.100Z,53.71
2018-06-03T02:05:36.285Z,43.21
2018-06-03T02:06:36.476Z,40.77
2018-06-03T02:07:36.677Z,43.21
2018-06-03T02:08:36.842Z,43.21
2018-06-03T02:09:37.016Z,44.19
2018-06-03T02:10:37.191Z,43.95
2018-06-03T02:11:37.363Z,45.17
2018-06-03T02:12:37.543Z,43.46
2018-06-03T02:13:37.797Z,43.70
2018-06-03T02:14:37.907Z,42.97
2018-06-03T02:15:38.089Z,44.68
2018-06-03T02:16:38.279Z,42.48
2018-06-03T02:17:38.489Z,45.65
2018-06-03T02:18:38.709Z,44.68
2018-06-03T02:19:38.856Z,43.21
2018-06-03T02:20:39.035Z,44.19
2018-06-03T02:21:39.209Z,43.46
2018-06-03T02:22:39.398Z,57.37
2018-06-03T02:23:39.579Z,60.79
2018-06-03T02:24:39.747Z,60.55
2018-06-03T02:25:39.972Z,61.77
2018-06-03T02:26:40.097Z,57.86
2018-06-03T02:27:40.300Z,63.48
2018-06-03T02:28:40.506Z,59.33
2018-06-03T02:29:40.663Z,58.11
2018-06-03T02:30:40.947Z,60.06
2018-06-03T02:31:41.079Z,59.81
2018-06-03T02:32:41.268Z,61.28
2018-06-03T02:33:41.416Z,56.15
2018-06-03T02:34:41.575Z,46.14
2018-06-03T02:35:41.768Z,40.53
2018-06-03T02:36:41.957Z,45.17
2018-06-03T02:37:42.154Z,43.70
2018-06-03T02:38:42.326Z,50.05
2018-06-03T02:39:42.495Z,48.34
2018-06-03T02:40:42.683Z,44.43
2018-06-03T02:41:42.856Z,52.00
2018-06-03T02:42:43.050Z,50.29
2018-06-03T02:43:43.226Z,51.03
2018-06-03T02:44:43.410Z,59.33
2018-06-03T02:45:43.605Z,66.89
2018-06-03T02:46:43.751Z,62.01
2018-06-03T02:47:43.945Z,59.57
2018-06-03T02:48:44.149Z,58.59
2018-06-03T02:49:44.320Z,62.50
2018-06-03T02:50:44.527Z,62.26
2018-06-03T02:51:44.684Z,61.77
2018-06-03T02:52:44.899Z,59.08
2018-06-03T02:53:45.042Z,61.28
2018-06-03T02:54:45.232Z,60.79
2018-06-03T02:55:45.452Z,58.11
2018-06-03T02:56:45.602Z,56.40
2018-06-03T02:57:45.768Z,59.57
2018-06-03T02:58:45.951Z,59.08
2018-06-03T02:59:46.132Z,57.86
2018-06-03T03:00:46.328Z,59.08
2018-06-03T03:01:46.487Z,65.92
2018-06-03T03:02:46.664Z,59.08
2018-06-03T03:03:46.851Z,61.77
2018-06-03T03:04:47.060Z,45.17
2018-06-03T03:05:47.260Z,47.36
2018-06-03T03:06:47.391Z,47.85
2018-06-03T03:07:47.599Z,45.65
2018-06-03T03:08:47.765Z,59.81
2018-06-03T03:09:47.971Z,59.33
2018-06-03T03:10:48.136Z,60.06
2018-06-03T03:11:48.330Z,54.93
2018-06-03T03:12:48.485Z,43.46
2018-06-03T03:13:48.698Z,47.61
2018-06-03T03:14:48.861Z,41.75
2018-06-03T03:15:49.078Z,41.02
2018-06-03T03:16:49.227Z,43.21
2018-06-03T03:17:49.418Z,47.36
2018-06-03T03:18:49.604Z,53.96
2018-06-03T03:19:49.805Z,54.93
2018-06-03T03:20:49.975Z,41.02
2018-06-03T03:21:50.246Z,47.61
2018-06-03T03:22:50.339Z,64.21
2018-06-03T03:23:50.536Z,46.14
2018-06-03T03:24:50.685Z,51.03
2018-06-03T03:25:50.896Z,54.69
2018-06-03T03:26:51.098Z,58.84
2018-06-03T03:27:51.217Z,56.64
2018-06-03T03:28:51.408Z,47.36
2018-06-03T03:29:51.631Z,43.21
2018-06-03T03:30:51.764Z,40.53
2018-06-03T03:31:51.976Z,40.04
2018-06-03T03:32:52.147Z,55.18
2018-06-03T03:33:52.312Z,57.62
2018-06-03T03:34:52.565Z,57.13
2018-06-03T03:35:52.733Z,57.62
2018-06-03T03:36:52.905Z,60.30
2018-06-03T03:37:53.089Z,57.62
2018-06-03T03:38:53.291Z,59.33
2018-06-03T03:39:53.461Z,53.47
2018-06-03T03:40:53.661Z,61.77
2018-06-03T03:41:53.833Z,60.79
2018-06-03T03:42:54.016Z,52.00
2018-06-03T03:43:54.190Z,55.42
2018-06-03T03:44:54.403Z,53.47
2018-06-03T03:45:54.573Z,59.81
2018-06-03T03:46:54.729Z,55.42
2018-06-03T03:47:54.930Z,61.28
2018-06-03T03:48:55.090Z,57.62
2018-06-03T03:49:55.270Z,51.76
2018-06-03T03:50:55.463Z,47.36
2018-06-03T03:51:55.632Z,54.69
2018-06-03T03:52:55.816Z,56.15
2018-06-03T03:53:56.002Z,50.05
2018-06-03T03:54:56.195Z,49.80
2018-06-03T03:55:56.374Z,42.24
2018-06-03T03:56:56.543Z,49.56
2018-06-03T03:57:56.728Z,56.40
2018-06-03T03:58:56.934Z,47.12
2018-06-03T03:59:57.090Z,54.93
2018-06-03T04:00:57.293Z,49.32
2018-06-03T04:01:57.470Z,53.96
2018-06-03T04:02:57.679Z,55.66
2018-06-03T04:03:57.875Z,58.84
2018-06-03T04:04:58.010Z,52.00
2018-06-03T04:05:58.207Z,46.88
2018-06-03T04:06:58.365Z,48.10
2018-06-03T04:07:58.534Z,46.14
2018-06-03T04:08:58.709Z,45.17
2018-06-03T04:09:58.902Z,41.02
2018-06-03T04:10:59.076Z,42.24
2018-06-03T04:11:59.269Z,40.77
2018-06-03T04:12:59.704Z,40.04
2018-06-03T04:13:59.626Z,47.61
2018-06-03T04:14:59.819Z,57.37
2018-06-03T04:15:59.999Z,58.84
2018-06-03T04:17:00.175Z,57.13
2018-06-03T04:18:00.356Z,59.33
2018-06-03T04:19:00.543Z,44.19
2018-06-03T04:20:00.727Z,48.10
2018-06-03T04:21:00.914Z,54.44
2018-06-03T04:22:01.123Z,45.41
2018-06-03T04:23:01.280Z,38.82
2018-06-03T04:24:01.463Z,38.33
2018-06-03T04:25:01.642Z,41.75
2018-06-03T04:26:01.807Z,40.77
2018-06-03T04:27:01.998Z,45.65
2018-06-03T04:28:02.170Z,56.15
2018-06-03T04:29:02.344Z,58.11
2018-06-03T04:30:02.531Z,60.79
2018-06-03T04:31:02.719Z,57.62
2018-06-03T04:32:02.914Z,63.96
2018-06-03T04:33:03.106Z,56.88
2018-06-03T04:34:03.311Z,58.84
2018-06-03T04:35:03.450Z,57.62
2018-06-03T04:36:03.649Z,57.62
2018-06-03T04:37:03.853Z,61.52
2018-06-03T04:38:03.979Z,47.85
2018-06-03T04:39:04.170Z,47.61
2018-06-03T04:40:04.323Z,43.95
2018-06-03T04:41:04.512Z,48.83
2018-06-03T04:42:04.690Z,45.65
2018-06-03T04:43:04.874Z,54.69
2018-06-03T04:44:05.054Z,55.91
2018-06-03T04:45:05.245Z,47.85
2018-06-03T04:46:05.424Z,45.17
2018-06-03T04:47:05.609Z,56.15
2018-06-03T04:48:05.806Z,63.72
2018-06-03T04:49:05.989Z,44.68
2018-06-03T04:50:06.212Z,50.78
2018-06-03T04:51:06.351Z,55.91
2018-06-03T04:52:06.562Z,56.15
2018-06-03T04:53:06.708Z,52.25
2018-06-03T04:54:06.906Z,59.33
2018-06-03T04:55:07.167Z,60.55
2018-06-03T04:56:07.247Z,60.79
2018-06-03T04:57:07.445Z,60.55
2018-06-03T04:58:07.641Z,45.65
2018-06-03T04:59:07.802Z,44.19
2018-06-03T05:00:07.987Z,56.64
2018-06-03T05:01:08.227Z,61.04
2018-06-03T05:02:08.365Z,45.17
2018-06-03T05:03:08.575Z,50.78
2018-06-03T05:04:08.719Z,57.37
2018-06-03T05:05:08.893Z,57.62
2018-06-03T05:06:09.113Z,57.13
2018-06-03T05:07:09.255Z,52.25
2018-06-03T05:08:09.460Z,52.00
2018-06-03T05:09:09.617Z,46.14
2018-06-03T05:10:09.818Z,49.32
2018-06-03T05:11:09.961Z,46.63
2018-06-03T05:12:10.145Z,51.27
2018-06-03T05:13:10.333Z,52.49
2018-06-03T05:14:10.520Z,49.32
2018-06-03T05:15:10.770Z,47.36
2018-06-03T05:16:10.886Z,43.46
2018-06-03T05:17:11.073Z,43.70
2018-06-03T05:18:11.252Z,41.50
2018-06-03T05:19:11.506Z,43.70
2018-06-03T05:20:11.700Z,41.75
2018-06-03T05:21:11.859Z,43.46
2018-06-03T05:22:12.000Z,53.22
2018-06-03T05:23:12.197Z,57.86
2018-06-03T05:24:12.379Z,45.65
2018-06-03T05:25:12.564Z,44.43
2018-06-03T05:26:12.733Z,49.32
2018-06-03T05:27:12.938Z,64.70
2018-06-03T05:28:13.142Z,69.58
2018-06-03T05:29:13.303Z,49.80
2018-06-03T05:30:13.450Z,42.97
2018-06-03T05:31:13.634Z,43.95
2018-06-03T05:32:13.821Z,43.95
2018-06-03T05:33:14.011Z,52.00
2018-06-03T05:34:14.209Z,52.98
2018-06-03T05:35:14.375Z,53.47
2018-06-03T05:36:14.596Z,47.85
2018-06-03T05:37:14.754Z,47.85
2018-06-03T05:38:14.938Z,58.35
2018-06-03T05:39:15.122Z,56.64
2018-06-03T05:40:15.319Z,54.44
2018-06-03T05:41:15.500Z,54.44
2018-06-03T05:42:15.677Z,52.00
2018-06-03T05:43:15.860Z,51.27
2018-06-03T05:44:16.069Z,52.73
2018-06-03T05:45:16.247Z,46.88
2018-06-03T05:46:16.405Z,48.83
2018-06-03T05:47:16.652Z,55.42
2018-06-03T05:48:16.823Z,51.51
2018-06-03T05:49:17.012Z,45.90
2018-06-03T05:50:17.241Z,47.85
2018-06-03T05:51:17.382Z,52.25
2018-06-03T05:52:17.574Z,58.84
2018-06-03T05:53:17.749Z,58.35
2018-06-03T05:54:17.947Z,57.62
2018-06-03T05:55:18.113Z,57.62
2018-06-03T05:56:18.297Z,57.13
2018-06-03T05:57:18.479Z,60.06
2018-06-03T05:58:18.672Z,65.67
2018-06-03T05:59:18.839Z,48.34
2018-06-03T06:00:19.019Z,47.36
2018-06-03T06:01:19.195Z,47.61
2018-06-03T06:02:19.388Z,49.80
2018-06-03T06:03:19.560Z,45.65
2018-06-03T06:04:19.763Z,47.85
2018-06-03T06:05:19.924Z,61.04
2018-06-03T06:06:20.142Z,54.20
2018-06-03T06:07:20.292Z,47.85
2018-06-03T06:08:20.472Z,54.93
2018-06-03T06:09:20.670Z,55.18
2018-06-03T06:10:20.831Z,60.79
2018-06-03T06:11:21.038Z,57.62
2018-06-03T06:12:21.214Z,55.18
2018-06-03T06:13:21.437Z,56.15
2018-06-03T06:14:21.684Z,55.18
2018-06-03T06:15:21.795Z,63.48
2018-06-03T06:16:22.007Z,67.87
2018-06-03T06:17:22.174Z,43.21
2018-06-03T06:18:22.336Z,55.42
2018-06-03T06:19:22.543Z,50.05
2018-06-03T06:20:22.703Z,49.80
2018-06-03T06:21:22.908Z,57.37
2018-06-03T06:22:23.122Z,57.13
2018-06-03T06:23:23.249Z,56.40
2018-06-03T06:24:23.499Z,58.35
2018-06-03T06:25:23.639Z,55.66
2018-06-03T06:26:23.861Z,61.28
2018-06-03T06:27:24.026Z,56.15
2018-06-03T06:28:24.172Z,55.66
2018-06-03T06:29:24.376Z,54.93
2018-06-03T06:30:24.564Z,55.91
2018-06-03T06:31:24.743Z,59.08
2018-06-03T06:32:24.918Z,73.97
2018-06-03T06:33:25.071Z,73.73
2018-06-03T06:34:25.259Z,76.17
2018-06-03T06:35:25.491Z,73.73
2018-06-03T06:36:25.679Z,58.84
2018-06-03T06:37:25.818Z,57.13
2018-06-03T06:38:26.000Z,54.93
2018-06-03T06:39:26.188Z,56.40
2018-06-03T06:40:26.401Z,57.62
2018-06-03T06:41:26.561Z,61.04
2018-06-03T06:42:26.800Z,71.04
2018-06-03T06:43:26.951Z,75.93
2018-06-03T06:44:27.121Z,58.35
2018-06-03T06:45:27.375Z,60.79
2018-06-03T06:46:27.500Z,55.42
2018-06-03T06:47:27.706Z,57.62
2018-06-03T06:48:27.863Z,53.96
2018-06-03T06:49:28.060Z,56.64
2018-06-03T06:50:28.237Z,52.00
2018-06-03T06:51:28.451Z,63.72
2018-06-03T06:52:28.589Z,54.20
2018-06-03T06:53:28.786Z,58.84
2018-06-03T06:54:28.993Z,62.26
2018-06-03T06:55:29.166Z,63.72
2018-06-03T06:56:29.334Z,58.84
2018-06-03T06:57:29.536Z,54.44
2018-06-03T06:58:29.740Z,54.44
2018-06-03T06:59:29.977Z,55.42
2018-06-03T07:00:30.144Z,61.04
2018-06-03T07:01:30.310Z,67.63
2018-06-03T07:02:30.515Z,71.04
2018-06-03T07:03:30.713Z,58.35
2018-06-03T07:04:30.924Z,59.08
2018-06-03T07:05:31.125Z,52.25
2018-06-03T07:06:31.291Z,57.86
2018-06-03T07:07:31.473Z,59.08
2018-06-03T07:08:31.642Z,58.59
2018-06-03T07:09:31.834Z,58.59
2018-06-03T07:10:32.025Z,55.18
2018-06-03T07:11:32.210Z,53.47
2018-06-03T07:12:32.403Z,59.08
2018-06-03T07:13:32.587Z,61.04
2018-06-03T07:14:32.805Z,60.55
2018-06-03T07:15:32.985Z,75.20
2018-06-03T07:16:33.146Z,74.22
2018-06-03T07:17:33.373Z,62.01
2018-06-03T07:18:33.515Z,54.69
2018-06-03T07:19:33.700Z,53.47
2018-06-03T07:20:33.922Z,62.26
2018-06-03T07:21:34.088Z,59.81
2018-06-03T07:22:34.359Z,53.47
2018-06-03T07:23:34.467Z,55.18
2018-06-03T07:24:34.641Z,60.30
2018-06-03T07:25:34.803Z,62.74
2018-06-03T07:26:35.028Z,62.50
2018-06-03T07:27:35.221Z,60.30
2018-06-03T07:28:35.363Z,63.72
2018-06-03T07:29:35.546Z,62.74
2018-06-03T07:30:35.772Z,62.99
2018-06-03T07:31:35.907Z,58.84
2018-06-03T07:32:36.141Z,62.99
2018-06-03T07:33:36.294Z,61.28
2018-06-03T07:34:36.489Z,59.33
2018-06-03T07:35:36.746Z,56.64
2018-06-03T07:36:36.844Z,63.23
2018-06-03T07:37:37.070Z,56.88
2018-06-03T07:38:37.236Z,59.57
2018-06-03T07:39:37.398Z,59.57
2018-06-03T07:40:37.612Z,55.18
2018-06-03T07:41:37.765Z,51.76
2018-06-03T07:42:37.994Z,61.04
2018-06-03T07:43:38.329Z,53.47
2018-06-03T07:44:38.489Z,51.27
2018-06-03T07:45:39.858Z,46.39
2018-06-03T07:46:38.771Z,59.08
2018-06-03T07:47:38.957Z,46.39
2018-06-03T07:48:39.150Z,46.63
2018-06-03T07:49:39.348Z,48.10
2018-06-03T07:50:39.489Z,54.20
2018-06-03T07:51:39.698Z,53.22
2018-06-03T07:52:39.860Z,61.28
2018-06-03T07:53:40.064Z,54.69
2018-06-03T07:54:40.247Z,69.82
2018-06-03T07:55:40.411Z,71.78
2018-06-03T07:56:40.620Z,50.54
2018-06-03T07:57:40.793Z,53.22
2018-06-03T07:58:41.019Z,54.93
2018-06-03T07:59:41.150Z,55.18
2018-06-03T08:00:41.353Z,56.15
2018-06-03T08:01:41.536Z,56.64
2018-06-03T08:02:41.754Z,46.63
2018-06-03T08:03:41.945Z,46.88
2018-06-03T08:04:42.133Z,52.98
2018-06-03T08:05:42.312Z,50.54
2018-06-03T08:06:42.490Z,52.73
2018-06-03T08:07:42.706Z,53.47
2018-06-03T08:08:42.852Z,52.25
2018-06-03T08:09:43.047Z,64.45
2018-06-03T08:10:43.214Z,44.68
2018-06-03T08:11:43.455Z,46.14
2018-06-03T08:12:43.674Z,53.47
2018-06-03T08:13:43.869Z,46.14
2018-06-03T08:14:44.040Z,45.65
2018-06-03T08:15:44.195Z,47.85
2018-06-03T08:16:44.415Z,51.76
2018-06-03T08:17:44.609Z,50.29
2018-06-03T08:18:44.797Z,50.05
2018-06-03T08:19:44.982Z,51.03
2018-06-03T08:20:45.180Z,59.81
2018-06-03T08:21:45.378Z,52.25
2018-06-03T08:22:45.523Z,53.96
2018-06-03T08:23:45.718Z,55.91
2018-06-03T08:24:45.967Z,55.91
2018-06-03T08:25:46.091Z,47.61
2018-06-03T08:26:46.355Z,54.44
2018-06-03T08:27:46.492Z,47.85
2018-06-03T08:28:46.663Z,63.72
2018-06-03T08:29:46.894Z,54.20
2018-06-03T08:30:47.083Z,55.66
2018-06-03T08:31:47.264Z,55.66
2018-06-03T08:32:47.504Z,50.78
2018-06-03T08:33:47.623Z,52.73
2018-06-03T08:34:47.828Z,53.96
2018-06-03T08:35:48.001Z,60.55
2018-06-03T08:36:48.232Z,51.76
2018-06-03T08:37:48.406Z,51.27
2018-06-03T08:38:48.585Z,53.71
2018-06-03T08:39:48.808Z,47.85
2018-06-03T08:40:48.985Z,46.39
2018-06-03T08:41:49.218Z,42.97
2018-06-03T08:42:49.342Z,47.85
2018-06-03T08:43:49.617Z,48.58
2018-06-03T08:44:49.769Z,49.56
2018-06-03T08:45:49.937Z,55.42
2018-06-03T08:46:50.153Z,45.65
2018-06-03T08:47:50.352Z,50.05
2018-06-03T08:48:50.470Z,48.10
2018-06-03T08:49:50.675Z,46.14
2018-06-03T08:50:50.903Z,46.39
2018-06-03T08:51:51.066Z,50.05
2018-06-03T08:52:51.249Z,54.93
2018-06-03T08:53:51.492Z,50.54
2018-06-03T08:54:51.602Z,49.56
2018-06-03T08:55:51.830Z,52.25
2018-06-03T08:56:52.004Z,56.64
2018-06-03T08:57:52.225Z,60.06
2018-06-03T08:58:52.382Z,66.41
2018-06-03T08:59:52.558Z,53.96
2018-06-03T09:00:52.750Z,73.49
2018-06-03T09:01:52.977Z,48.34
2018-06-03T09:02:53.114Z,51.27
2018-06-03T09:03:53.341Z,51.27
2018-06-03T09:04:53.480Z,46.39
2018-06-03T09:05:53.718Z,46.88
2018-06-03T09:06:53.912Z,55.91
2018-06-03T09:07:54.093Z,55.66
2018-06-03T09:08:54.238Z,55.42
2018-06-03T09:09:54.489Z,48.83
2018-06-03T09:10:54.631Z,44.92
2018-06-03T09:11:55.240Z,56.15
2018-06-03T09:12:55.053Z,49.56
2018-06-03T09:13:55.234Z,45.90
2018-06-03T09:14:55.390Z,48.10
2018-06-03T09:15:55.614Z,52.00
2018-06-03T09:16:55.779Z,52.25
2018-06-03T09:17:55.944Z,57.86
2018-06-03T09:18:56.139Z,54.20
2018-06-03T09:19:56.361Z,53.96
2018-06-03T09:20:56.557Z,48.58
2018-06-03T09:21:56.714Z,62.01
2018-06-03T09:22:56.927Z,57.86
2018-06-03T09:23:57.128Z,55.18
2018-06-03T09:24:57.314Z,59.08
2018-06-03T09:25:57.492Z,68.36
2018-06-03T09:26:57.644Z,68.60
2018-06-03T09:27:57.862Z,58.84
2018-06-03T09:28:58.016Z,54.44
2018-06-03T09:29:58.234Z,57.37
2018-06-03T09:30:58.389Z,58.11
2018-06-03T09:31:58.567Z,55.66
2018-06-03T09:37:30.068Z,61.04
2018-06-03T09:39:01.489Z,57.62
2018-06-03T09:39:27.762Z,53.96
2018-06-03T09:40:27.953Z,51.27
2018-06-03T09:41:28.116Z,49.56
2018-06-03T09:42:28.256Z,56.88
2018-06-03T09:43:28.489Z,51.03
2018-06-03T09:44:28.675Z,53.47
2018-06-03T09:45:28.856Z,48.83
2018-06-03T09:46:29.030Z,59.81
2018-06-03T09:47:29.216Z,45.17
2018-06-03T09:48:29.399Z,53.47
2018-06-03T09:49:29.690Z,47.85
2018-06-03T09:50:29.761Z,45.65
2018-06-03T09:51:29.985Z,56.64
2018-06-03T09:52:30.147Z,62.99
2018-06-03T09:53:30.331Z,60.06
2018-06-03T09:54:30.532Z,62.74
2018-06-03T09:55:30.706Z,62.50
2018-06-03T09:56:30.943Z,57.37
2018-06-03T09:57:31.062Z,59.81
2018-06-03T09:58:31.275Z,64.21
2018-06-03T09:59:31.595Z,56.40
2018-06-03T10:00:31.750Z,56.15
2018-06-03T10:01:31.875Z,56.15
2018-06-03T10:02:32.035Z,61.04
2018-06-03T10:03:32.278Z,60.55
2018-06-03T10:04:32.452Z,56.64
2018-06-03T10:05:32.638Z,59.81
2018-06-03T10:06:32.819Z,55.42
2018-06-03T10:07:32.998Z,60.06
2018-06-03T10:08:33.230Z,56.15
2018-06-03T10:09:33.403Z,67.38
2018-06-03T10:10:33.543Z,60.55
2018-06-03T10:11:33.737Z,58.59
2018-06-03T10:12:33.930Z,63.96
2018-06-03T10:13:34.158Z,63.23
2018-06-03T10:14:34.348Z,55.66
2018-06-03T10:15:34.530Z,59.33
2018-06-03T10:16:34.780Z,53.47
2018-06-03T10:17:34.950Z,52.49
2018-06-03T10:18:35.130Z,56.40
2018-06-03T10:19:35.302Z,56.88
2018-06-03T10:20:35.502Z,58.35
2018-06-03T10:21:35.700Z,68.85
2018-06-03T10:22:35.841Z,62.99
2018-06-03T10:23:36.074Z,55.91
2018-06-03T10:24:36.358Z,54.69
2018-06-03T10:25:36.452Z,56.88
2018-06-03T10:26:36.693Z,58.59
2018-06-03T10:27:36.831Z,61.04
2018-06-03T10:28:37.057Z,57.86
2018-06-03T10:29:37.226Z,68.60
2018-06-03T10:30:37.396Z,59.08
2018-06-03T10:31:37.582Z,69.34
2018-06-03T10:32:37.780Z,65.43
2018-06-03T10:33:38.031Z,75.44
2018-06-03T10:34:38.198Z,76.66
2018-06-03T10:35:38.378Z,62.50
2018-06-03T10:36:38.568Z,67.87
2018-06-03T10:37:38.742Z,74.71
2018-06-03T10:38:38.924Z,75.20
2018-06-03T10:39:39.158Z,73.24
2018-06-03T10:40:39.317Z,71.53
2018-06-03T10:41:39.556Z,58.35
2018-06-03T10:42:39.671Z,61.04
2018-06-03T10:43:40.617Z,66.89
2018-06-03T10:44:40.152Z,69.34
2018-06-03T10:45:40.306Z,69.34
2018-06-03T10:46:40.476Z,75.68
2018-06-03T10:47:40.669Z,76.42
2018-06-03T10:48:40.902Z,61.52
2018-06-03T10:49:41.051Z,75.44
2018-06-03T10:50:41.230Z,56.64
2018-06-03T10:51:41.418Z,78.37
2018-06-03T10:52:41.648Z,75.68
2018-06-03T10:53:41.823Z,58.35
2018-06-03T10:54:41.990Z,57.86
2018-06-03T10:55:42.208Z,60.79
2018-06-03T10:56:42.358Z,61.77
2018-06-03T10:57:42.544Z,65.92
2018-06-03T10:58:42.739Z,45.41
2018-06-03T10:59:42.942Z,51.27
2018-06-03T11:00:43.168Z,51.27
2018-06-03T11:01:43.295Z,54.44
2018-06-03T11:02:43.485Z,48.58
2018-06-03T11:03:43.693Z,53.71
2018-06-03T11:04:43.872Z,57.62
2018-06-03T11:05:44.063Z,47.61
2018-06-03T11:06:44.259Z,49.07
2018-06-03T11:07:44.472Z,51.03
2018-06-03T11:08:44.734Z,53.22
2018-06-03T11:09:44.827Z,48.58
2018-06-03T11:10:45.064Z,51.51
2018-06-03T11:11:45.197Z,49.32
2018-06-03T11:12:45.371Z,49.56
2018-06-03T11:13:45.588Z,56.64
2018-06-03T11:14:45.750Z,55.42
2018-06-03T11:29:23.479Z,57.86
2018-06-03T11:30:21.704Z,54.69
2018-06-03T11:31:22.570Z,59.08
2018-06-03T11:32:23.507Z,58.11
2018-06-03T11:36:02.686Z,55.18
2018-06-03T11:37:07.110Z,55.66
2018-06-03T11:38:02.781Z,53.96
2018-06-03T11:39:02.976Z,50.05
2018-06-03T11:40:03.092Z,59.81
2018-06-03T11:41:03.291Z,60.06
2018-06-03T11:42:03.650Z,51.51
2018-06-03T11:43:03.764Z,50.29
2018-06-03T11:44:03.919Z,47.85
2018-06-03T11:45:04.039Z,57.13
2018-06-03T11:46:04.342Z,55.66
2018-06-03T11:47:04.464Z,63.48
2018-06-03T11:48:04.630Z,59.33
2018-06-03T11:49:04.865Z,58.11
2018-06-03T11:50:05.012Z,53.71
2018-06-03T11:51:05.191Z,51.51
2018-06-03T11:52:05.464Z,51.27
2018-06-03T11:53:05.607Z,53.47
2018-06-03T11:54:05.773Z,49.80
2018-06-03T11:55:05.992Z,57.62
2018-06-03T11:56:06.191Z,60.79
2018-06-03T11:57:06.381Z,49.56
2018-06-03T11:58:06.509Z,51.03
2018-06-03T11:59:06.790Z,57.62
2018-06-03T12:00:06.969Z,58.11
2018-06-03T12:01:07.201Z,49.56
2018-06-03T12:02:07.349Z,58.84
2018-06-03T12:03:07.510Z,50.78
2018-06-03T12:04:07.739Z,48.10
2018-06-03T12:05:07.952Z,58.84
2018-06-03T12:06:08.146Z,56.15
2018-06-03T12:07:08.403Z,51.27
2018-06-03T12:08:08.534Z,50.29
2018-06-03T12:09:08.746Z,52.00
2018-06-03T12:10:08.888Z,55.42
2018-06-03T12:11:09.099Z,54.93
2018-06-03T12:12:09.253Z,48.58
2018-06-03T12:13:09.652Z,50.05
2018-06-03T12:14:10.237Z,54.20
2018-06-03T12:15:09.852Z,49.56
2018-06-03T12:16:10.050Z,52.49
2018-06-03T12:17:10.222Z,48.10
2018-06-03T12:18:10.442Z,46.14
2018-06-03T12:19:10.657Z,43.46
2018-06-03T12:20:10.798Z,46.39
2018-06-03T12:21:10.981Z,53.47
2018-06-03T12:22:11.159Z,64.70
2018-06-03T12:23:11.320Z,57.62
2018-06-03T12:24:11.513Z,65.92
2018-06-03T12:25:11.702Z,51.51
2018-06-03T12:26:11.907Z,51.76
2018-06-03T12:27:12.101Z,55.18
2018-06-03T12:28:12.282Z,56.15
2018-06-03T12:29:12.472Z,50.29
2018-06-03T12:30:12.683Z,48.10
2018-06-03T12:31:12.842Z,65.19
2018-06-03T12:32:13.013Z,62.50
2018-06-03T12:33:13.210Z,64.94
2018-06-03T12:34:13.432Z,66.65
2018-06-03T12:35:13.598Z,49.80
2018-06-03T12:36:13.768Z,55.42
2018-06-03T12:37:13.961Z,52.49
2018-06-03T12:38:14.197Z,55.42
2018-06-03T12:45:25.234Z,57.37
2018-06-03T12:46:44.048Z,53.71
2018-06-03T12:50:10.325Z,48.34
2018-06-03T12:51:10.347Z,52.98
2018-06-03T12:52:20.433Z,55.18
2018-06-03T12:53:10.653Z,54.69
2018-06-03T12:54:10.924Z,53.47
2018-06-03T12:55:11.177Z,52.00
2018-06-03T12:56:11.975Z,52.98
2018-06-03T12:57:11.465Z,53.71
2018-06-03T12:58:11.621Z,49.80
2018-06-03T12:59:11.842Z,52.73
2018-06-03T13:00:12.225Z,46.63
2018-06-03T13:01:12.183Z,47.85
2018-06-03T13:02:12.372Z,49.07
2018-06-03T13:03:12.646Z,62.99
2018-06-03T13:04:13.944Z,51.03
2018-06-03T13:05:12.931Z,44.68
2018-06-03T13:06:13.137Z,45.90
2018-06-03T13:07:13.321Z,59.08
2018-06-03T13:08:13.511Z,54.44
2018-06-03T13:09:13.714Z,53.22
2018-06-03T13:10:13.949Z,52.73
2018-06-03T13:11:14.096Z,56.64
2018-06-03T13:12:14.282Z,50.54
2018-06-03T13:13:14.477Z,48.10
2018-06-03T13:14:14.667Z,52.00
2018-06-03T13:15:14.878Z,54.44
2018-06-03T13:16:15.034Z,48.58
2018-06-03T13:17:15.239Z,49.80
2018-06-03T13:18:15.425Z,51.76
2018-06-03T13:19:15.607Z,51.76
2018-06-03T13:20:15.752Z,49.56
2018-06-03T13:21:16.020Z,52.25
2018-06-03T13:22:16.202Z,50.05
2018-06-03T13:23:16.413Z,60.06
2018-06-03T13:24:16.566Z,51.27